createdAt,value
2023-05-22T00:00:32.658Z,100934.69
2023-05-22T00:02:59.894Z,100937.53
2023-05-22T00:05:26.927Z,100928.63
2023-05-22T00:07:54.056Z,100933.84
2023-05-22T00:10:21.029Z,100928.78
2023-05-22T00:12:48.124Z,100936.88
2023-05-22T00:15:15.108Z,100942.13
2023-05-22T00:17:42.457Z,100939.59
2023-05-22T00:20:11.306Z,100937.53
2023-05-22T00:22:38.531Z,100930.78
2023-05-22T00:25:06.972Z,100945.00
2023-05-22T00:27:35.008Z,100937.88
2023-05-22T00:30:02.194Z,100942.44
2023-05-22T00:32:30.272Z,100938.22
2023-05-22T00:34:57.566Z,100936.84
2023-05-22T00:37:25.586Z,100930.00
2023-05-22T00:39:52.841Z,100934.56
2023-05-22T00:42:24.306Z,100938.31
2023-05-22T00:44:51.864Z,100936.09
2023-05-22T00:47:24.119Z,100937.75
2023-05-22T00:49:51.231Z,100937.75
2023-05-22T00:52:19.404Z,100933.88
2023-05-22T00:54:47.182Z,100934.53
2023-05-22T00:57:14.520Z,100921.88
2023-05-22T00:59:41.551Z,100923.88
2023-05-22T01:02:09.120Z,100930.69
2023-05-22T01:04:37.462Z,100927.28
2023-05-22T01:07:06.286Z,100927.28
2023-05-22T01:09:33.540Z,100926.44
2023-05-22T01:12:34.547Z,100922.94
2023-05-22T01:15:22.102Z,100927.66
2023-05-22T01:18:13.602Z,100924.09
2023-05-22T01:20:49.043Z,100921.53
2023-05-22T01:24:06.966Z,100920.94
2023-05-22T01:27:26.288Z,100908.41
2023-05-22T01:30:10.299Z,100912.44
2023-05-22T01:32:39.046Z,100915.31
2023-05-22T01:35:11.164Z,100908.03
2023-05-22T01:37:40.024Z,100904.31
2023-05-22T01:40:10.415Z,100908.72
2023-05-22T01:42:41.332Z,100903.31
2023-05-22T01:45:11.638Z,100910.44
2023-05-22T01:47:39.020Z,100912.28
2023-05-22T01:50:06.925Z,100905.03
2023-05-22T01:52:47.437Z,100903.00
2023-05-22T01:55:43.116Z,100896.56
2023-05-22T01:58:12.962Z,100894.00
2023-05-22T02:00:43.877Z,100900.25
2023-05-22T02:03:17.924Z,100898.56
2023-05-22T02:05:47.204Z,100907.50
2023-05-22T02:08:14.887Z,100898.56
2023-05-22T02:10:43.631Z,100901.25
2023-05-22T02:13:11.202Z,100900.25
2023-05-22T02:15:38.401Z,100906.00
2023-05-22T02:18:11.120Z,100901.59
2023-05-22T02:20:38.455Z,100897.53
2023-05-22T02:23:05.989Z,100900.03
2023-05-22T02:25:33.048Z,100900.03
2023-05-22T02:28:00.180Z,100903.59
2023-05-22T02:30:27.261Z,100897.19
2023-05-22T02:32:58.052Z,100899.22
2023-05-22T02:35:25.045Z,100899.22
2023-05-22T02:37:53.051Z,100892.13
2023-05-22T02:40:20.272Z,100890.75
2023-05-22T02:42:47.351Z,100890.44
2023-05-22T02:45:14.625Z,100891.56
2023-05-22T02:47:42.205Z,100888.34
2023-05-22T02:50:09.577Z,100888.53
2023-05-22T02:52:37.334Z,100883.94
2023-05-22T02:55:04.874Z,100885.66
2023-05-22T02:57:32.106Z,100891.06
2023-05-22T02:59:59.620Z,100882.28
2023-05-22T03:02:28.538Z,100886.50
2023-05-22T03:04:59.205Z,100886.00
2023-05-22T03:07:26.560Z,100880.59
2023-05-22T03:09:53.532Z,100880.88
2023-05-22T03:12:21.605Z,100876.16
2023-05-22T03:14:48.594Z,100876.66
2023-05-22T03:17:15.820Z,100876.16
2023-05-22T03:19:42.959Z,100874.44
2023-05-22T03:22:10.049Z,100874.13
2023-05-22T03:24:37.202Z,100873.44
2023-05-22T03:27:04.400Z,100877.84
2023-05-22T03:29:39.200Z,100881.56
2023-05-22T03:32:06.519Z,100884.41
2023-05-22T03:34:33.516Z,100881.22
2023-05-22T03:37:02.685Z,100867.88
2023-05-22T03:39:29.731Z,100872.75
2023-05-22T03:42:01.723Z,100868.06
2023-05-22T03:44:29.481Z,100875.81
2023-05-22T03:46:56.562Z,100863.00
2023-05-22T03:49:23.671Z,100874.44
2023-05-22T03:51:50.906Z,100872.75
2023-05-22T03:54:18.006Z,100871.59
2023-05-22T03:56:44.959Z,100868.53
2023-05-22T03:59:12.078Z,100871.06
2023-05-22T04:01:39.610Z,100873.59
2023-05-22T04:04:06.711Z,100876.44
2023-05-22T04:06:34.347Z,100876.44
2023-05-22T04:09:01.355Z,100876.31
2023-05-22T04:11:30.621Z,100877.31
2023-05-22T04:14:02.837Z,100875.31
2023-05-22T04:16:29.930Z,100872.75
2023-05-22T04:18:57.957Z,100871.22
2023-05-22T04:21:25.073Z,100881.56
2023-05-22T04:23:51.988Z,100882.22
2023-05-22T04:26:20.846Z,100882.91
2023-05-22T04:28:48.044Z,100881.22
2023-05-22T04:31:15.046Z,100883.59
2023-05-22T04:33:42.035Z,100886.00
2023-05-22T04:36:12.348Z,100889.53
2023-05-22T04:38:41.501Z,100892.25
2023-05-22T04:41:19.618Z,100895.09
2023-05-22T04:43:48.605Z,100894.41
2023-05-22T04:46:16.481Z,100895.09
2023-05-22T04:48:43.656Z,100893.41
2023-05-22T04:51:10.634Z,100893.72
2023-05-22T04:53:38.844Z,100890.31
2023-05-22T04:56:07.274Z,100891.69
2023-05-22T04:58:34.855Z,100890.69
2023-05-22T05:01:03.489Z,100895.09
2023-05-22T05:03:30.710Z,100895.44
2023-05-22T05:05:59.674Z,100899.78
2023-05-22T05:08:27.711Z,100899.97
2023-05-22T05:10:54.648Z,100900.84
2023-05-22T05:13:22.967Z,100899.13
2023-05-22T05:15:49.998Z,100909.94
2023-05-22T05:18:17.649Z,100905.91
2023-05-22T05:20:44.703Z,100907.59
2023-05-22T05:23:13.247Z,100905.28
2023-05-22T05:25:40.301Z,100906.97
2023-05-22T05:28:11.280Z,100899.53
2023-05-22T05:30:40.389Z,100906.97
2023-05-22T05:33:28.129Z,100904.63
2023-05-22T05:36:16.396Z,100920.84
2023-05-22T05:38:45.361Z,100920.50
2023-05-22T05:41:13.798Z,100925.06
2023-05-22T05:43:42.117Z,100930.47
2023-05-22T05:46:10.090Z,100927.63
2023-05-22T05:48:37.351Z,100929.13
2023-05-22T05:51:05.346Z,100931.00
2023-05-22T05:53:38.014Z,100934.38
2023-05-22T05:56:06.820Z,100936.09
2023-05-22T05:58:34.988Z,100939.47
2023-05-22T06:01:20.619Z,100937.75
2023-05-22T06:03:49.114Z,100943.16
2023-05-22T06:06:29.933Z,100944.88
2023-05-22T06:09:17.703Z,100939.78
2023-05-22T06:12:19.937Z,100949.59
2023-05-22T06:14:46.891Z,100949.75
2023-05-22T06:17:15.659Z,100945.19
2023-05-22T06:19:44.237Z,100943.50
2023-05-22T06:22:11.308Z,100946.91
2023-05-22T06:24:40.713Z,100943.50
2023-05-22T06:27:13.558Z,100938.09
2023-05-22T06:29:40.757Z,100950.59
2023-05-22T06:32:08.918Z,100945.19
2023-05-22T06:34:38.248Z,100942.66
2023-05-22T06:37:06.282Z,100948.38
2023-05-22T06:39:39.438Z,100938.44
2023-05-22T06:42:44.048Z,100931.66
2023-05-22T06:45:31.299Z,100930.25
2023-05-22T06:48:24.272Z,100937.34
2023-05-22T06:51:12.039Z,100931.94
2023-05-22T06:53:41.189Z,100939.56
2023-05-22T06:56:15.162Z,100939.44
2023-05-22T06:58:59.207Z,100950.22
2023-05-22T07:01:44.765Z,100949.53
2023-05-22T07:04:15.595Z,100954.94
2023-05-22T07:06:57.395Z,100960.66
2023-05-22T07:09:25.185Z,100970.16
2023-05-22T07:11:53.557Z,100965.97
2023-05-22T07:14:21.405Z,100970.56
2023-05-22T07:16:48.527Z,100969.59
2023-05-22T07:19:21.517Z,100973.66
2023-05-22T07:21:48.664Z,100974.34
2023-05-22T07:24:18.701Z,100978.06
2023-05-22T07:26:48.690Z,100985.16
2023-05-22T07:29:17.223Z,100991.25
2023-05-22T07:31:47.716Z,100989.72
2023-05-22T07:34:14.773Z,100989.94
2023-05-22T07:36:43.375Z,100987.16
2023-05-22T07:39:10.495Z,100995.97
2023-05-22T07:41:41.245Z,100999.69
2023-05-22T07:44:12.025Z,100997.34
2023-05-22T07:46:39.091Z,100994.50
2023-05-22T07:49:12.075Z,100995.00
2023-05-22T07:51:41.983Z,100992.69
2023-05-22T07:54:10.315Z,100997.75
2023-05-22T07:56:44.072Z,101007.22
2023-05-22T07:59:12.213Z,101008.94
2023-05-22T08:01:42.285Z,101003.53
2023-05-22T08:04:09.486Z,101005.84
2023-05-22T08:06:36.947Z,101013.13
2023-05-22T08:09:07.291Z,101009.75
2023-05-22T08:11:35.223Z,101012.31
2023-05-22T08:14:02.208Z,101008.19
2023-05-22T08:16:31.186Z,101004.50
2023-05-22T08:18:58.191Z,101012.59
2023-05-22T08:21:25.258Z,101006.91
2023-05-22T08:23:52.213Z,101004.84
2023-05-22T08:26:19.658Z,101003.84
2023-05-22T08:28:46.573Z,101003.16
2023-05-22T08:31:13.534Z,101004.50
2023-05-22T08:33:40.470Z,101009.75
2023-05-22T08:36:07.692Z,101016.00
2023-05-22T08:38:34.966Z,101014.63
2023-05-22T08:41:02.075Z,101013.94
2023-05-22T08:43:29.775Z,101012.41
2023-05-22T08:46:03.405Z,101014.09
2023-05-22T08:48:34.579Z,101020.69
2023-05-22T08:51:05.994Z,101014.94
2023-05-22T08:53:37.615Z,101024.91
2023-05-22T08:56:08.798Z,101019.34
2023-05-22T08:58:37.206Z,101014.94
2023-05-22T09:01:10.024Z,101030.16
2023-05-22T09:03:37.824Z,101034.03
2023-05-22T09:06:09.529Z,101033.00
2023-05-22T09:08:37.058Z,101027.78
2023-05-22T09:11:04.264Z,101020.03
2023-05-22T09:13:32.246Z,101019.69
2023-05-22T09:16:10.650Z,101013.59
2023-05-22T09:18:39.077Z,101007.53
2023-05-22T09:21:14.366Z,101003.97
2023-05-22T09:23:52.334Z,101000.78
2023-05-22T09:26:19.521Z,100998.09
2023-05-22T09:28:47.549Z,100993.00
2023-05-22T09:31:15.109Z,100990.66
2023-05-22T09:33:44.309Z,100990.97
2023-05-22T09:36:11.332Z,100993.53
2023-05-22T09:38:39.481Z,100992.88
2023-05-22T09:41:06.612Z,100994.56
2023-05-22T09:43:33.962Z,100995.09
2023-05-22T09:46:06.947Z,100999.00
2023-05-22T09:48:36.689Z,100995.84
2023-05-22T09:51:05.264Z,101004.59
2023-05-22T09:53:33.463Z,101009.88
2023-05-22T09:56:02.183Z,101018.22
2023-05-22T09:58:31.663Z,101005.91
2023-05-22T10:00:59.904Z,100998.66
2023-05-22T10:03:27.428Z,101005.16
2023-05-22T10:05:56.977Z,101003.47
2023-05-22T10:08:39.167Z,100999.44
2023-05-22T10:11:06.598Z,100994.69
2023-05-22T10:13:36.222Z,100991.31
2023-05-22T10:16:04.919Z,100987.59
2023-05-22T10:18:32.394Z,100976.78
2023-05-22T10:21:00.918Z,100985.56
2023-05-22T10:23:29.923Z,100987.59
2023-05-22T10:25:57.787Z,100985.56
2023-05-22T10:28:30.756Z,100975.06
2023-05-22T10:31:10.329Z,100982.47
2023-05-22T10:34:08.180Z,100973.00
2023-05-22T10:37:16.548Z,100975.69
2023-05-22T10:39:57.152Z,100974.00
2023-05-22T10:42:26.551Z,100966.56
2023-05-22T10:44:53.629Z,100969.97
2023-05-22T10:47:20.833Z,100988.59
2023-05-22T10:49:49.828Z,100977.44
2023-05-22T10:52:27.738Z,100969.31
2023-05-22T10:54:54.825Z,100979.44
2023-05-22T10:57:27.806Z,100978.94
2023-05-22T11:00:09.002Z,100986.56
2023-05-22T11:02:41.105Z,100989.41
2023-05-22T11:05:14.184Z,100987.16
2023-05-22T11:07:41.831Z,100997.81
2023-05-22T11:10:08.848Z,100985.50
2023-05-22T11:12:37.442Z,100982.59
2023-05-22T11:15:09.044Z,100977.16
2023-05-22T11:17:39.911Z,100984.13
2023-05-22T11:20:15.666Z,100975.69
2023-05-22T11:22:45.317Z,100985.38
2023-05-22T11:25:18.040Z,100987.88
2023-05-22T11:27:46.791Z,100977.22
2023-05-22T11:30:16.804Z,100984.22
2023-05-22T11:32:48.578Z,100979.09
2023-05-22T11:35:18.207Z,100964.13
2023-05-22T11:37:49.385Z,100970.06
2023-05-22T11:40:21.434Z,100966.16
2023-05-22T11:42:48.915Z,100981.06
2023-05-22T11:45:15.863Z,100965.81
2023-05-22T11:47:43.745Z,100981.66
2023-05-22T11:50:12.768Z,100984.84
2023-05-22T11:52:42.507Z,100964.13
2023-05-22T11:55:11.147Z,100964.13
2023-05-22T11:57:38.606Z,100959.56
2023-05-22T12:00:08.759Z,100972.59
2023-05-22T12:02:39.619Z,100951.59
2023-05-22T12:05:10.343Z,100955.69
2023-05-22T12:07:37.864Z,100956.72
2023-05-22T12:10:07.577Z,100945.38
2023-05-22T12:12:34.973Z,100944.88
2023-05-22T12:15:05.747Z,100939.41
2023-05-22T12:17:36.086Z,100931.81
2023-05-22T12:20:04.850Z,100931.66
2023-05-22T12:22:32.281Z,100923.47
2023-05-22T12:24:59.223Z,100919.38
2023-05-22T12:27:33.025Z,100914.59
2023-05-22T12:30:08.514Z,100918.38
2023-05-22T12:32:35.593Z,100915.00
2023-05-22T12:35:02.676Z,100913.34
2023-05-22T12:37:29.681Z,100913.34
2023-05-22T12:40:02.019Z,100915.53
2023-05-22T12:42:29.428Z,100911.66
2023-05-22T12:44:58.291Z,100912.19
2023-05-22T12:47:25.983Z,100918.44
2023-05-22T12:49:53.680Z,100912.19
2023-05-22T12:52:20.959Z,100918.16
2023-05-22T12:54:48.066Z,100914.44
2023-05-22T12:57:18.316Z,100907.81
2023-05-22T12:59:46.006Z,100905.13
2023-05-22T13:02:15.795Z,100909.03
2023-05-22T13:04:43.171Z,100907.69
2023-05-22T13:07:10.108Z,100901.53
2023-05-22T13:09:37.369Z,100904.56
2023-05-22T13:12:04.577Z,100914.53
2023-05-22T13:14:34.086Z,100908.25
2023-05-22T13:17:01.117Z,100898.22
2023-05-22T13:19:28.191Z,100900.72
2023-05-22T13:21:55.479Z,100890.81
2023-05-22T13:24:22.670Z,100890.47
2023-05-22T13:26:49.642Z,100895.19
2023-05-22T13:29:20.015Z,100896.50
2023-05-22T13:31:47.055Z,100892.56
2023-05-22T13:34:14.137Z,100898.47
2023-05-22T13:36:41.288Z,100894.97
2023-05-22T13:39:08.209Z,100897.13
2023-05-22T13:41:35.275Z,100903.03
2023-05-22T13:44:02.368Z,100902.03
2023-05-22T13:46:29.322Z,100915.22
2023-05-22T13:48:56.353Z,100908.63
2023-05-22T13:51:26.066Z,100902.56
2023-05-22T13:53:53.243Z,100903.41
2023-05-22T13:56:20.337Z,100901.22
2023-05-22T13:58:47.945Z,100903.88
2023-05-22T14:01:15.114Z,100904.84
2023-05-22T14:03:45.019Z,100920.47
2023-05-22T14:06:12.580Z,100911.34
2023-05-22T14:08:39.616Z,100911.72
2023-05-22T14:11:06.776Z,100903.88
2023-05-22T14:13:33.862Z,100920.56
2023-05-22T14:16:00.877Z,100912.16
2023-05-22T14:18:27.921Z,100922.41
2023-05-22T14:20:54.914Z,100922.50
2023-05-22T14:23:24.047Z,100916.06
2023-05-22T14:25:52.966Z,100928.13
2023-05-22T14:28:20.089Z,100927.97
2023-05-22T14:30:47.356Z,100927.31
2023-05-22T14:33:14.491Z,100924.59
2023-05-22T14:35:41.742Z,100937.09
2023-05-22T14:38:08.777Z,100937.81
2023-05-22T14:40:35.791Z,100931.72
2023-05-22T14:43:02.825Z,100937.00
2023-05-22T14:45:30.024Z,100922.59
2023-05-22T14:47:57.071Z,100924.97
2023-05-22T14:50:24.143Z,100912.28
2023-05-22T14:52:51.359Z,100914.31
2023-05-22T14:55:18.632Z,100917.00
2023-05-22T14:57:45.899Z,100911.56
2023-05-22T15:00:13.527Z,100910.00
2023-05-22T15:02:41.166Z,100904.59
2023-05-22T15:05:08.889Z,100907.31
2023-05-22T15:07:43.979Z,100906.63
2023-05-22T15:10:13.220Z,100915.78
2023-05-22T15:12:40.281Z,100919.13
2023-05-22T15:15:08.076Z,100908.25
2023-05-22T15:17:35.002Z,100908.16
2023-05-22T15:20:02.114Z,100934.47
2023-05-22T15:22:29.032Z,100932.13
2023-05-22T15:25:16.278Z,100919.84
2023-05-22T15:27:43.598Z,100902.91
2023-05-22T15:30:10.814Z,100921.31
2023-05-22T15:32:38.858Z,100923.25
2023-05-22T15:35:07.313Z,100926.91
2023-05-22T15:37:36.578Z,100918.34
2023-05-22T15:40:04.686Z,100927.78
2023-05-22T15:42:32.079Z,100921.66
2023-05-22T15:45:00.403Z,100922.38
2023-05-22T15:47:27.655Z,100934.94
2023-05-22T15:49:54.726Z,100925.19
2023-05-22T15:52:23.497Z,100926.03
2023-05-22T15:54:50.568Z,100918.72
2023-05-22T15:57:17.774Z,100920.25
2023-05-22T15:59:47.435Z,100931.00
2023-05-22T16:02:14.757Z,100912.25
2023-05-22T16:04:41.785Z,100922.22
2023-05-22T16:07:08.828Z,100910.22
2023-05-22T16:09:36.342Z,100903.66
2023-05-22T16:12:04.006Z,100896.97
2023-05-22T16:14:31.469Z,100921.50
2023-05-22T16:16:58.551Z,100913.78
2023-05-22T16:19:26.846Z,100904.59
2023-05-22T16:21:54.051Z,100907.44
2023-05-22T16:24:20.995Z,100927.72
2023-05-22T16:26:47.927Z,100918.81
2023-05-22T16:29:15.000Z,100922.84
2023-05-22T16:31:42.360Z,100925.69
2023-05-22T16:34:10.649Z,100926.53
2023-05-22T16:36:38.380Z,100936.13
2023-05-22T16:39:05.306Z,100929.84
2023-05-22T16:41:32.573Z,100936.47
2023-05-22T16:44:00.007Z,100930.16
2023-05-22T16:46:28.096Z,100931.16
2023-05-22T16:48:55.136Z,100923.97
2023-05-22T16:51:22.245Z,100937.16
2023-05-22T16:53:50.190Z,100930.16
2023-05-22T16:56:20.593Z,100932.91
2023-05-22T16:58:47.995Z,100917.78
2023-05-22T17:01:15.361Z,100918.59
2023-05-22T17:03:42.742Z,100926.88
2023-05-22T17:06:10.197Z,100927.63
2023-05-22T17:08:37.155Z,100914.47
2023-05-22T17:11:04.059Z,100918.59
2023-05-22T17:13:31.178Z,100922.28
2023-05-22T17:15:58.104Z,100922.94
2023-05-22T17:18:25.049Z,100925.84
2023-05-22T17:20:54.277Z,100923.66
2023-05-22T17:23:21.756Z,100924.69
2023-05-22T17:25:49.160Z,100932.78
2023-05-22T17:28:16.678Z,100923.44
2023-05-22T17:30:47.274Z,100909.41
2023-05-22T17:33:14.431Z,100920.09
2023-05-22T17:35:42.123Z,100927.19
2023-05-22T17:38:09.497Z,100925.81
2023-05-22T17:40:44.920Z,100930.69
2023-05-22T17:43:14.322Z,100930.44
2023-05-22T17:45:41.926Z,100936.22
2023-05-22T17:48:09.468Z,100932.66
2023-05-22T17:50:36.686Z,100929.94
2023-05-22T17:53:03.775Z,100929.28
2023-05-22T17:55:30.731Z,100927.78
2023-05-22T17:57:58.929Z,100923.25
2023-05-22T18:00:26.128Z,100928.66
2023-05-22T18:02:53.749Z,100927.03
2023-05-22T18:05:21.090Z,100931.44
2023-05-22T18:07:48.666Z,100938.41
2023-05-22T18:10:15.804Z,100935.75
2023-05-22T18:12:43.055Z,100938.28
2023-05-22T18:15:12.239Z,100932.22
2023-05-22T18:17:39.527Z,100936.13
2023-05-22T18:20:08.403Z,100942.69
2023-05-22T18:22:38.490Z,100949.50
2023-05-22T18:25:07.322Z,100949.38
2023-05-22T18:27:34.900Z,100953.91
2023-05-22T18:30:03.277Z,100955.28
2023-05-22T18:32:31.400Z,100956.28
2023-05-22T18:34:59.860Z,100966.03
2023-05-22T18:37:26.844Z,100963.81
2023-05-22T18:39:53.829Z,100958.63
2023-05-22T18:42:21.138Z,100952.56
2023-05-22T18:44:49.067Z,100963.16
2023-05-22T18:47:17.215Z,100950.84
2023-05-22T18:49:44.570Z,100952.88
2023-05-22T18:52:11.511Z,100957.59
2023-05-22T18:54:38.425Z,100963.03
2023-05-22T18:57:05.553Z,100955.59
2023-05-22T18:59:32.881Z,100956.28
2023-05-22T19:02:00.274Z,100948.81
2023-05-22T19:04:27.329Z,100945.13
2023-05-22T19:06:54.795Z,100950.84
2023-05-22T19:09:22.851Z,100942.06
2023-05-22T19:11:50.026Z,100951.88
2023-05-22T19:14:17.360Z,100946.81
2023-05-22T19:16:45.294Z,100947.53
2023-05-22T19:19:12.869Z,100950.88
2023-05-22T19:21:43.470Z,100952.25
2023-05-22T19:24:10.554Z,100954.28
2023-05-22T19:26:37.851Z,100955.16
2023-05-22T19:29:04.973Z,100966.47
2023-05-22T19:31:32.145Z,100961.91
2023-05-22T19:33:59.183Z,100967.66
2023-05-22T19:36:26.169Z,100970.16
2023-05-22T19:38:59.242Z,100970.53
2023-05-22T19:41:27.030Z,100974.44
2023-05-22T19:43:57.070Z,100973.88
2023-05-22T19:46:24.062Z,100975.28
2023-05-22T19:48:51.109Z,100979.31
2023-05-22T19:51:18.441Z,100985.56
2023-05-22T19:53:45.512Z,100978.47
2023-05-22T19:56:12.736Z,100992.50
2023-05-22T19:58:40.184Z,100982.84
2023-05-22T20:01:07.157Z,100996.94
2023-05-22T20:03:34.207Z,100994.53
2023-05-22T20:06:01.313Z,101001.66
2023-05-22T20:08:28.658Z,101009.09
2023-05-22T20:10:55.881Z,101003.34
2023-05-22T20:13:22.933Z,101008.78
2023-05-22T20:15:51.450Z,101011.97
2023-05-22T20:18:18.729Z,101008.13
2023-05-22T20:20:45.946Z,101008.78
2023-05-22T20:23:13.013Z,101008.78
2023-05-22T20:25:40.401Z,101019.59
2023-05-22T20:28:07.597Z,101029.25
2023-05-22T20:30:34.599Z,101030.78
2023-05-22T20:33:01.648Z,101036.34
2023-05-22T20:35:30.707Z,101029.06
2023-05-22T20:38:03.358Z,101036.16
2023-05-22T20:40:32.524Z,101030.41
2023-05-22T20:43:02.554Z,101031.41
2023-05-22T20:45:32.993Z,101027.41
2023-05-22T20:48:00.605Z,101032.81
2023-05-22T20:50:27.718Z,101034.13
2023-05-22T20:52:55.002Z,101033.13
2023-05-22T20:55:21.984Z,101043.28
2023-05-22T20:57:48.927Z,101038.88
2023-05-22T21:00:16.670Z,101049.00
2023-05-22T21:02:43.856Z,101041.56
2023-05-22T21:05:11.366Z,101053.25
2023-05-22T21:07:40.427Z,101056.81
2023-05-22T21:10:08.264Z,101059.81
2023-05-22T21:12:35.386Z,101061.00
2023-05-22T21:15:02.419Z,101063.88
2023-05-22T21:17:29.388Z,101061.31
2023-05-22T21:19:56.447Z,101068.25
2023-05-22T21:22:23.527Z,101068.75
2023-05-22T21:24:50.696Z,101068.25
2023-05-22T21:27:17.662Z,101073.66
2023-05-22T21:29:44.683Z,101071.09
2023-05-22T21:32:11.712Z,101074.97
2023-05-22T21:34:38.722Z,101081.06
2023-05-22T21:37:05.907Z,101092.22
2023-05-22T21:39:32.947Z,101090.81
2023-05-22T21:42:00.130Z,101090.81
2023-05-22T21:44:27.163Z,101085.75
2023-05-22T21:46:54.120Z,101086.06
2023-05-22T21:49:21.131Z,101082.69
2023-05-22T21:51:48.181Z,101084.16
2023-05-22T21:54:15.155Z,101081.78
2023-05-22T21:56:42.323Z,101081.94
2023-05-22T21:59:09.484Z,101089.03
2023-05-22T22:01:36.608Z,101087.69
2023-05-22T22:04:03.824Z,101088.53
2023-05-22T22:06:31.418Z,101076.34
2023-05-22T22:08:59.906Z,101073.44
2023-05-22T22:11:27.580Z,101073.44
2023-05-22T22:13:55.058Z,101070.75
2023-05-22T22:16:22.467Z,101069.91
2023-05-22T22:18:50.263Z,101071.44
2023-05-22T22:21:17.502Z,101072.09
2023-05-22T22:23:44.461Z,101066.16
2023-05-22T22:26:12.379Z,101065.63
2023-05-22T22:28:39.432Z,101063.06
2023-05-22T22:31:06.487Z,101062.56
2023-05-22T22:33:33.459Z,101065.25
2023-05-22T22:36:00.401Z,101059.47
2023-05-22T22:38:27.412Z,101068.03
2023-05-22T22:40:54.720Z,101069.19
2023-05-22T22:43:21.687Z,101066.09
2023-05-22T22:45:48.628Z,101069.19
2023-05-22T22:48:16.718Z,101063.78
2023-05-22T22:50:44.208Z,101065.09
2023-05-22T22:53:11.273Z,101061.34
2023-05-22T22:55:38.471Z,101063.66
2023-05-22T22:58:05.669Z,101061.97
2023-05-22T23:00:32.952Z,101061.72
2023-05-22T23:02:59.910Z,101065.13
2023-05-22T23:05:27.007Z,101061.19
2023-05-22T23:07:54.038Z,101066.00
2023-05-22T23:10:22.121Z,101066.28
2023-05-22T23:12:49.367Z,101070.31
2023-05-22T23:15:16.657Z,101067.47
2023-05-22T23:17:43.667Z,101068.59
2023-05-22T23:20:11.118Z,101064.53
2023-05-22T23:22:38.084Z,101070.91
2023-05-22T23:25:05.585Z,101063.00
2023-05-22T23:27:32.647Z,101069.78
2023-05-22T23:29:59.753Z,101070.91
2023-05-22T23:32:26.792Z,101072.94
2023-05-22T23:34:53.835Z,101058.75
2023-05-22T23:37:20.866Z,101070.38
2023-05-22T23:39:47.975Z,101070.38
2023-05-22T23:42:16.044Z,101059.34
2023-05-22T23:44:43.192Z,101065.47
2023-05-22T23:47:10.360Z,101075.03
2023-05-22T23:49:37.405Z,101071.47
2023-05-22T23:52:04.665Z,101067.53
2023-05-22T23:54:31.572Z,101066.72
2023-05-22T23:56:58.514Z,101066.53
2023-05-22T23:59:25.522Z,101071.41
